Time;durP1;ratioP1;P1;durP2;ratioP2;P2;SDS_P1;SDS_P2;PMS_P1;PMS_P2;Temp;Humidity;BMP_temperature;BMP_pressure;BME280_temperature;BME280_humidity;BME280_pressure;Samples;Min_cycle;Max_cycle;Signal;HPM_P1;HPM_P2
2023/10/22 00:02:05;;;;;;;6.80;1.05;;;13.00;91.10;;;;;;4957029;28;20513;-65
2023/10/22 00:04:31;;;;;;;5.40;1.40;;;13.10;90.20;;;;;;4951803;29;20043;-66
2023/10/22 00:06:58;;;;;;;4.43;1.13;;;13.10;90.70;;;;;;4950908;28;20197;-66
2023/10/22 00:09:23;;;;;;;3.97;1.00;;;13.10;90.90;;;;;;4951799;28;20109;-65
2023/10/22 00:11:49;;;;;;;5.35;1.10;;;13.20;90.60;;;;;;4951468;28;20023;-65
2023/10/22 00:14:14;;;;;;;5.53;1.30;;;13.20;90.00;;;;;;4952129;28;20042;-65
2023/10/22 00:16:40;;;;;;;3.47;1.10;;;13.30;90.50;;;;;;4951656;29;20027;-65
2023/10/22 00:19:06;;;;;;;10.20;1.25;;;13.30;90.60;;;;;;4950803;29;20035;-66
2023/10/22 00:21:33;;;;;;;7.82;1.40;;;13.30;89.90;;;;;;4950291;29;20027;-66
2023/10/22 00:23:58;;;;;;;7.88;1.27;;;13.30;90.30;;;;;;4950352;29;20033;-66
2023/10/22 00:26:24;;;;;;;8.48;1.55;;;13.30;90.70;;;;;;4950588;29;20497;-66
2023/10/22 00:28:50;;;;;;;6.25;1.30;;;13.30;90.40;;;;;;4949455;28;20494;-65
2023/10/22 00:31:15;;;;;;;6.00;1.30;;;13.30;90.70;;;;;;4951046;28;20397;-65
2023/10/22 00:33:41;;;;;;;4.97;1.10;;;13.30;90.50;;;;;;4951401;28;20027;-65
2023/10/22 00:36:07;;;;;;;3.60;1.08;;;13.30;90.70;;;;;;4950865;28;20063;-65
2023/10/22 00:38:33;;;;;;;7.30;1.30;;;13.30;90.40;;;;;;4951669;29;20045;-65
2023/10/22 00:40:59;;;;;;;3.25;1.05;;;13.40;90.50;;;;;;4951050;28;20027;-65
2023/10/22 00:43:29;;;;;;;4.57;1.05;;;13.30;90.20;;;;;;4949966;29;20023;-66
2023/10/22 00:45:54;;;;;;;;;;;13.30;90.40;;;;;;4948136;28;20401;-66
2023/10/22 00:48:21;;;;;;;3.90;1.00;;;13.30;90.30;;;;;;4950900;29;19913;-66
2023/10/22 00:50:47;;;;;;;5.50;1.20;;;13.30;90.30;;;;;;4950127;28;20474;-65
2023/10/22 00:53:16;;;;;;;9.43;1.60;;;13.30;90.70;;;;;;4950547;28;20412;-65
2023/10/22 00:55:45;;;;;;;6.57;1.20;;;13.30;90.60;;;;;;4949346;28;20035;-65
2023/10/22 00:58:12;;;;;;;4.15;1.10;;;13.30;90.20;;;;;;4951526;28;20019;-65
2023/10/22 01:00:39;;;;;;;9.95;1.33;;;13.30;90.70;;;;;;4948679;28;20103;-65
2023/10/22 01:03:05;;;;;;;5.22;1.10;;;13.30;91.00;;;;;;4963041;28;20037;-65
2023/10/22 01:05:37;;;;;;;5.57;1.17;;;13.30;90.90;;;;;;4948979;28;20097;-65
2023/10/22 01:08:05;;;;;;;6.28;1.63;;;13.20;91.00;;;;;;4945206;29;20035;-65
2023/10/22 01:10:34;;;;;;;6.57;1.10;;;13.20;90.80;;;;;;4948677;29;20055;-65
2023/10/22 01:13:01;;;;;;;6.22;1.20;;;13.20;90.90;;;;;;4948410;28;20061;-65
2023/10/22 01:15:27;;;;;;;4.32;1.25;;;13.20;90.90;;;;;;4948652;28;20547;-65
2023/10/22 01:17:55;;;;;;;7.88;1.30;;;13.20;90.80;;;;;;4948585;28;20039;-65
2023/10/22 01:20:23;;;;;;;5.18;1.10;;;13.20;91.20;;;;;;4947267;28;20422;-65
2023/10/22 01:22:49;;;;;;;5.00;1.25;;;13.20;91.00;;;;;;4947844;28;20038;-65
2023/10/22 01:25:15;;;;;;;7.30;1.10;;;13.10;91.00;;;;;;4947410;29;20027;-65
2023/10/22 01:27:40;;;;;;;3.17;1.08;;;13.20;91.50;;;;;;4948716;28;20046;-65
2023/10/22 01:30:06;;;;;;;6.22;1.20;;;13.20;91.30;;;;;;4946215;28;20035;-65
2023/10/22 01:32:33;;;;;;;5.22;1.00;;;13.20;91.70;;;;;;4948476;28;20020;-65
2023/10/22 01:35:00;;;;;;;6.28;1.10;;;13.20;91.70;;;;;;4947790;28;20045;-65
2023/10/22 01:37:25;;;;;;;4.18;1.10;;;13.10;91.50;;;;;;4948530;28;20050;-65
2023/10/22 01:39:51;;;;;;;5.18;1.20;;;13.10;91.50;;;;;;4947722;28;20435;-65
2023/10/22 01:42:17;;;;;;;5.28;1.00;;;13.10;91.60;;;;;;4948143;28;20051;-65
2023/10/22 01:44:43;;;;;;;6.15;1.60;;;13.10;91.50;;;;;;4947901;28;20074;-65
2023/10/22 01:47:10;;;;;;;3.63;1.20;;;13.10;91.70;;;;;;4948349;28;20027;-65
2023/10/22 01:49:36;;;;;;;5.90;1.00;;;13.10;91.90;;;;;;4948323;28;20073;-65
2023/10/22 01:52:02;;;;;;;8.32;1.30;;;13.10;92.20;;;;;;4947250;28;20039;-65
2023/10/22 01:54:28;;;;;;;3.30;1.00;;;13.10;91.70;;;;;;4948017;28;20359;-65
2023/10/22 01:56:54;;;;;;;6.38;1.27;;;13.10;91.50;;;;;;4947614;29;20433;-65
2023/10/22 01:59:22;;;;;;;3.58;0.90;;;13.10;92.00;;;;;;4947840;28;20031;-65
2023/10/22 02:01:48;;;;;;;5.78;1.20;;;13.10;91.80;;;;;;4947283;28;20035;-65
2023/10/22 02:04:13;;;;;;;4.38;1.10;;;13.10;91.60;;;;;;4948103;28;20496;-64
2023/10/22 02:06:39;;;;;;;3.90;1.02;;;13.10;92.00;;;;;;4947674;29;20100;-64
2023/10/22 02:09:05;;;;;;;4.30;1.00;;;13.10;92.00;;;;;;4947219;28;20055;-64
2023/10/22 02:11:31;;;;;;;5.10;1.10;;;13.00;92.30;;;;;;4947945;28;20019;-64
2023/10/22 02:13:56;;;;;;;2.78;0.90;;;13.00;91.90;;;;;;4947220;28;20019;-64
2023/10/22 02:16:23;;;;;;;5.55;1.13;;;13.00;92.00;;;;;;4947626;29;20023;-64
2023/10/22 02:18:49;;;;;;;5.50;1.08;;;13.00;92.00;;;;;;4947337;28;20081;-64
2023/10/22 02:21:15;;;;;;;5.45;1.38;;;13.00;92.00;;;;;;4947219;28;20031;-64
2023/10/22 02:23:41;;;;;;;10.05;1.30;;;13.00;92.20;;;;;;4947200;28;20122;-64
2023/10/22 02:26:07;;;;;;;7.47;1.10;;;13.00;92.00;;;;;;4947186;28;20094;-64
2023/10/22 02:28:33;;;;;;;3.95;1.05;;;13.00;92.30;;;;;;4946216;28;20506;-64
2023/10/22 02:30:59;;;;;;;4.07;1.00;;;13.00;92.50;;;;;;4947244;28;20038;-64
2023/10/22 02:33:24;;;;;;;7.85;1.33;;;13.00;92.70;;;;;;4947734;28;20054;-64
2023/10/22 02:35:53;;;;;;;5.70;1.10;;;13.00;92.60;;;;;;4947242;28;20034;-64
2023/10/22 02:38:19;;;;;;;3.97;1.20;;;13.00;92.70;;;;;;4947511;28;20042;-65
2023/10/22 02:40:49;;;;;;;4.55;1.10;;;12.90;92.90;;;;;;4947039;28;20440;-65
2023/10/22 02:43:15;;;;;;;6.60;1.15;;;12.90;93.10;;;;;;4947755;28;20105;-64
2023/10/22 02:45:51;;;;;;;7.43;1.20;;;12.90;93.30;;;;;;4947506;28;20089;-64
2023/10/22 02:48:16;;;;;;;5.78;1.10;;;12.90;93.30;;;;;;4945940;28;20035;-64
2023/10/22 02:50:42;;;;;;;4.60;1.10;;;12.90;93.10;;;;;;4945569;28;20030;-64
2023/10/22 02:53:10;;;;;;;4.78;1.20;;;12.90;93.20;;;;;;4950617;28;20509;-64
2023/10/22 02:55:39;;;;;;;4.75;1.00;;;12.90;93.20;;;;;;4964433;28;20043;-64
2023/10/22 02:58:04;;;;;;;3.55;1.10;;;12.90;93.20;;;;;;4952259;28;20027;-64
2023/10/22 03:00:30;;;;;;;4.03;1.00;;;12.90;93.20;;;;;;4948231;29;20039;-65
2023/10/22 03:02:56;;;;;;;2.33;0.95;;;12.80;93.20;;;;;;4951332;28;20027;-65
2023/10/22 03:05:21;;;;;;;3.65;1.10;;;12.90;93.10;;;;;;4952330;29;20050;-65
2023/10/22 03:07:47;;;;;;;6.47;1.08;;;12.80;93.30;;;;;;4951450;28;20077;-65
2023/10/22 03:10:13;;;;;;;4.57;1.10;;;12.80;93.50;;;;;;4952068;29;20410;-65
2023/10/22 03:12:38;;;;;;;6.10;1.25;;;12.80;93.70;;;;;;4952205;28;20104;-65
2023/10/22 03:15:04;;;;;;;2.58;1.10;;;12.80;93.70;;;;;;4951929;28;20063;-65
2023/10/22 03:17:30;;;;;;;6.32;1.20;;;12.80;93.60;;;;;;4952128;28;20106;-65
2023/10/22 03:19:56;;;;;;;4.65;1.10;;;12.80;93.70;;;;;;4951567;28;20161;-65
2023/10/22 03:22:22;;;;;;;3.83;1.40;;;12.80;93.80;;;;;;4952195;28;20032;-65
2023/10/22 03:24:51;;;;;;;2.17;0.90;;;12.80;93.80;;;;;;4951761;28;20039;-66
2023/10/22 03:27:17;;;;;;;3.75;1.00;;;12.80;93.90;;;;;;4952176;28;20035;-66
2023/10/22 03:29:44;;;;;;;5.40;1.73;;;12.80;93.90;;;;;;4950413;28;20038;-66
2023/10/22 03:32:10;;;;;;;3.30;1.00;;;12.70;94.30;;;;;;4950594;29;20058;-66
2023/10/22 03:34:36;;;;;;;4.53;1.13;;;12.70;94.60;;;;;;4951878;28;20097;-66
2023/10/22 03:37:04;;;;;;;3.17;0.93;;;12.70;94.40;;;;;;4950132;29;20161;-66
2023/10/22 03:39:30;;;;;;;3.78;0.90;;;12.70;94.70;;;;;;4952032;28;20101;-67
2023/10/22 03:41:56;;;;;;;3.53;1.10;;;12.60;94.90;;;;;;4951347;28;20174;-66
2023/10/22 03:44:22;;;;;;;2.40;1.00;;;12.60;94.90;;;;;;4951886;28;20110;-66
2023/10/22 03:46:50;;;;;;;2.88;1.10;;;12.60;94.80;;;;;;4951442;28;20042;-65
2023/10/22 03:49:15;;;;;;;4.85;0.98;;;12.60;95.00;;;;;;4951498;28;20031;-65
2023/10/22 03:51:41;;;;;;;4.28;1.05;;;12.60;95.20;;;;;;4951794;28;20560;-65
2023/10/22 03:54:07;;;;;;;3.13;0.80;;;12.60;95.40;;;;;;4951056;29;20034;-65
2023/10/22 03:56:34;;;;;;;3.40;1.10;;;12.50;95.50;;;;;;4951740;28;20019;-65
2023/10/22 03:59:00;;;;;;;3.85;0.93;;;12.50;95.80;;;;;;4952915;28;20054;-66
2023/10/22 04:01:26;;;;;;;2.20;0.93;;;12.40;96.20;;;;;;4951612;28;20027;-66
2023/10/22 04:03:51;;;;;;;3.28;0.90;;;12.30;96.70;;;;;;4950600;28;20528;-66
2023/10/22 04:06:17;;;;;;;3.42;1.10;;;12.30;97.00;;;;;;4951568;29;20047;-66
2023/10/22 04:08:43;;;;;;;3.83;1.00;;;12.20;97.20;;;;;;4951296;28;20475;-65
2023/10/22 04:11:08;;;;;;;2.40;0.88;;;12.10;97.60;;;;;;4949649;28;20033;-65
2023/10/22 04:13:34;;;;;;;3.75;1.00;;;12.10;97.60;;;;;;4945585;28;20035;-65
2023/10/22 04:16:00;;;;;;;3.70;1.60;;;12.10;97.70;;;;;;4950938;28;20050;-66
2023/10/22 04:18:25;;;;;;;2.83;0.93;;;12.00;98.10;;;;;;4948979;28;20478;-65
2023/10/22 04:20:51;;;;;;;6.18;1.13;;;11.90;98.40;;;;;;4950721;29;20031;-65
2023/10/22 04:23:19;;;;;;;4.65;1.00;;;11.80;98.40;;;;;;4951224;28;20437;-66
2023/10/22 04:25:45;;;;;;;3.20;0.98;;;11.80;98.10;;;;;;4951222;28;20035;-66
2023/10/22 04:28:18;;;;;;;4.63;1.13;;;11.90;98.10;;;;;;4950829;28;20428;-66
2023/10/22 04:30:45;;;;;;;5.93;1.17;;;11.90;97.90;;;;;;4951345;28;20176;-66
2023/10/22 04:33:11;;;;;;;4.53;1.02;;;11.80;97.70;;;;;;4949723;28;20027;-65
2023/10/22 04:35:37;;;;;;;4.30;0.93;;;11.90;97.90;;;;;;4951262;29;20028;-65
2023/10/22 04:38:03;;;;;;;4.75;1.10;;;11.80;97.80;;;;;;4950530;28;20059;-65
2023/10/22 04:40:33;;;;;;;3.10;1.00;;;11.90;98.10;;;;;;4951180;28;20043;-66
2023/10/22 04:42:58;;;;;;;3.83;1.10;;;11.80;98.10;;;;;;4950563;28;20548;-66
2023/10/22 04:45:24;;;;;;;4.72;1.15;;;11.80;98.10;;;;;;4950849;28;20043;-65
2023/10/22 04:47:50;;;;;;;4.85;1.50;;;11.90;98.20;;;;;;4950348;29;20106;-65
2023/10/22 04:50:15;;;;;;;2.55;1.05;;;11.90;98.20;;;;;;4950680;28;20031;-65
2023/10/22 04:52:43;;;;;;;3.42;0.90;;;11.80;98.40;;;;;;4949581;29;20398;-65
2023/10/22 04:55:11;;;;;;;3.17;1.05;;;11.80;98.50;;;;;;4950614;28;20032;-65
2023/10/22 04:57:36;;;;;;;3.17;1.10;;;11.80;98.50;;;;;;4948405;28;20031;-65
2023/10/22 05:00:07;;;;;;;2.95;0.95;;;11.80;98.50;;;;;;4949146;28;20073;-65
2023/10/22 05:02:33;;;;;;;;;;;11.80;98.60;;;;;;4951098;28;20036;-65
2023/10/22 05:04:58;;;;;;;3.95;1.10;;;11.80;98.40;;;;;;4948596;29;19906;-65
2023/10/22 05:07:24;;;;;;;3.70;1.00;;;11.80;98.50;;;;;;4950702;29;20035;-65
2023/10/22 05:09:50;;;;;;;3.75;1.08;;;11.80;98.60;;;;;;4949770;28;20055;-65
2023/10/22 05:12:16;;;;;;;4.13;1.02;;;11.80;98.60;;;;;;4950547;29;20173;-65
2023/10/22 05:14:47;;;;;;;2.55;1.08;;;11.80;98.60;;;;;;4949654;28;20030;-65
2023/10/22 05:17:13;;;;;;;3.80;1.45;;;11.80;98.70;;;;;;4949940;28;20039;-65
2023/10/22 05:19:39;;;;;;;3.08;1.08;;;11.80;98.70;;;;;;4949194;28;20466;-65
2023/10/22 05:22:04;;;;;;;4.28;1.10;;;11.80;98.70;;;;;;4949862;28;20023;-65
2023/10/22 05:24:33;;;;;;;4.43;1.00;;;11.90;98.50;;;;;;4950536;28;20027;-65
2023/10/22 05:26:58;;;;;;;3.65;1.08;;;11.90;98.50;;;;;;4949765;28;20043;-65
2023/10/22 05:29:24;;;;;;;2.47;0.95;;;12.00;98.60;;;;;;4948799;28;20394;-65
2023/10/22 05:31:50;;;;;;;3.95;1.17;;;12.00;98.60;;;;;;4949776;28;20149;-65
2023/10/22 05:34:16;;;;;;;4.65;1.10;;;12.00;98.60;;;;;;4950285;28;20453;-66
2023/10/22 05:36:42;;;;;;;3.75;1.15;;;12.00;98.60;;;;;;4950042;29;20031;-66
2023/10/22 05:39:07;;;;;;;3.25;1.00;;;12.00;98.60;;;;;;4948141;29;20035;-66
2023/10/22 05:41:33;;;;;;;2.22;1.00;;;12.00;98.70;;;;;;4950101;28;20073;-66
2023/10/22 05:44:01;;;;;;;5.28;1.15;;;12.00;99.00;;;;;;4949481;28;20027;-66
2023/10/22 05:46:36;;;;;;;1.65;0.80;;;12.00;99.50;;;;;;4948693;28;20046;-66
2023/10/22 05:49:03;;;;;;;3.28;1.10;;;11.90;99.90;;;;;;4945992;29;20050;-67
2023/10/22 05:51:29;;;;;;;3.83;1.20;;;11.80;99.90;;;;;;4947029;28;20031;-66
2023/10/22 05:53:57;;;;;;;3.38;1.00;;;11.70;99.90;;;;;;4947522;28;20077;-66
2023/10/22 05:56:24;;;;;;;2.35;0.93;;;11.70;99.90;;;;;;4949576;29;20797;-66
2023/10/22 05:58:50;;;;;;;3.08;0.93;;;11.60;99.90;;;;;;4950036;28;20413;-66
2023/10/22 06:01:19;;;;;;;4.10;1.10;;;11.50;99.90;;;;;;4949291;29;20090;-66
2023/10/22 06:03:44;;;;;;;4.25;1.00;;;11.50;99.90;;;;;;4949801;28;20131;-66
2023/10/22 06:06:10;;;;;;;1.50;0.90;;;11.40;99.90;;;;;;4948908;29;20533;-66
2023/10/22 06:08:36;;;;;;;2.70;1.10;;;11.30;99.90;;;;;;4949320;28;20081;-66
2023/10/22 06:11:05;;;;;;;3.42;1.33;;;11.30;99.90;;;;;;4947188;28;20067;-66
2023/10/22 06:13:34;;;;;;;4.53;1.10;;;11.30;99.90;;;;;;4947701;28;20036;-66
2023/10/22 06:16:00;;;;;;;2.17;1.00;;;11.30;99.90;;;;;;4948681;28;20363;-66
2023/10/22 06:18:25;;;;;;;4.47;1.00;;;11.30;99.90;;;;;;4948735;29;20019;-66
2023/10/22 06:20:51;;;;;;;3.20;1.00;;;11.30;99.90;;;;;;4948657;28;20089;-66
2023/10/22 06:23:17;;;;;;;2.05;0.85;;;11.30;99.90;;;;;;4948140;28;20077;-66
2023/10/22 06:25:45;;;;;;;1.65;0.80;;;11.30;99.90;;;;;;4948718;28;20490;-66
2023/10/22 06:28:11;;;;;;;2.15;0.90;;;11.30;99.90;;;;;;4949360;29;20035;-66
2023/10/22 06:30:37;;;;;;;3.30;1.00;;;11.30;99.90;;;;;;4948406;28;20038;-66
2023/10/22 06:33:03;;;;;;;1.70;0.80;;;11.40;99.90;;;;;;4950580;28;20027;-66
2023/10/22 06:35:30;;;;;;;1.65;0.80;;;11.40;99.90;;;;;;4950879;28;20019;-66
2023/10/22 06:37:56;;;;;;;3.63;0.80;;;11.40;99.90;;;;;;4950453;28;20030;-66
2023/10/22 06:40:23;;;;;;;1.67;0.82;;;11.30;99.80;;;;;;4950737;28;20027;-66
2023/10/22 06:42:49;;;;;;;2.88;1.02;;;11.30;99.70;;;;;;4950925;28;20581;-66
2023/10/22 06:45:17;;;;;;;1.60;0.80;;;11.30;99.70;;;;;;4949199;28;20027;-66
2023/10/22 06:47:43;;;;;;;1.13;0.80;;;11.30;99.90;;;;;;4946292;29;20028;-66
2023/10/22 06:50:11;;;;;;;3.90;0.80;;;11.30;99.40;;;;;;4950372;28;20070;-66
2023/10/22 06:52:37;;;;;;;1.83;0.82;;;11.20;99.40;;;;;;4950108;28;20513;-66
2023/10/22 06:55:05;;;;;;;1.50;0.90;;;11.30;99.30;;;;;;4950348;28;20023;-64
2023/10/22 06:57:30;;;;;;;1.73;0.80;;;11.30;98.60;;;;;;4950981;28;20836;-64
2023/10/22 06:59:58;;;;;;;3.08;1.00;;;11.30;98.70;;;;;;4951888;28;20023;-64
2023/10/22 07:02:27;;;;;;;2.70;0.80;;;11.40;99.00;;;;;;4950846;28;20114;-64
2023/10/22 07:04:56;;;;;;;2.08;0.82;;;11.50;98.70;;;;;;4949999;28;20060;-64
2023/10/22 07:07:23;;;;;;;2.60;0.80;;;11.50;98.80;;;;;;4950605;28;20035;-64
2023/10/22 07:09:49;;;;;;;2.22;0.90;;;11.60;98.90;;;;;;4950315;28;20306;-64
2023/10/22 07:12:15;;;;;;;2.92;0.80;;;11.60;98.40;;;;;;4950127;28;20113;-64
2023/10/22 07:14:41;;;;;;;1.73;0.80;;;11.60;98.10;;;;;;5032920;28;20024;-64
2023/10/22 07:17:07;;;;;;;1.75;0.90;;;11.70;98.30;;;;;;4949452;28;20469;-64
2023/10/22 07:19:33;;;;;;;1.13;0.70;;;11.70;97.50;;;;;;4947683;29;20543;-63
2023/10/22 07:21:59;;;;;;;2.60;0.80;;;11.80;97.40;;;;;;4950762;28;20031;-64
2023/10/22 07:24:25;;;;;;;2.55;0.88;;;11.80;97.60;;;;;;4949825;28;20028;-64
2023/10/22 07:26:50;;;;;;;2.83;1.00;;;11.80;97.90;;;;;;4966205;28;20045;-64
2023/10/22 07:29:16;;;;;;;1.80;0.80;;;11.90;97.30;;;;;;4958089;28;20676;-64
2023/10/22 07:31:43;;;;;;;1.23;0.70;;;11.90;97.60;;;;;;4950420;28;20024;-64
2023/10/22 07:34:12;;;;;;;1.48;0.80;;;11.90;97.10;;;;;;4951107;28;20030;-64
2023/10/22 07:36:38;;;;;;;2.30;1.27;;;11.90;97.50;;;;;;4951657;28;20064;-64
2023/10/22 07:39:04;;;;;;;1.10;0.70;;;11.90;97.40;;;;;;4950201;29;20429;-64
2023/10/22 07:41:29;;;;;;;1.48;0.70;;;11.90;97.10;;;;;;4963882;28;20018;-64
2023/10/22 07:43:55;;;;;;;1.80;0.80;;;11.90;97.50;;;;;;4966160;28;20032;-64
2023/10/22 07:46:21;;;;;;;2.00;0.80;;;11.90;97.10;;;;;;4961626;28;20053;-64
2023/10/22 07:48:46;;;;;;;2.50;0.95;;;12.00;97.50;;;;;;4950951;28;20023;-64
2023/10/22 07:51:16;;;;;;;1.33;0.75;;;12.00;97.10;;;;;;4947564;28;20077;-64
2023/10/22 07:53:43;;;;;;;3.53;0.82;;;12.00;96.90;;;;;;4949324;28;20023;-64
2023/10/22 07:56:10;;;;;;;1.83;0.90;;;12.00;96.90;;;;;;4949230;28;20106;-64
2023/10/22 07:58:37;;;;;;;2.05;0.80;;;12.00;97.30;;;;;;4946911;28;20028;-63
2023/10/22 08:01:06;;;;;;;0.95;0.70;;;12.10;97.20;;;;;;4948495;28;20378;-64
2023/10/22 08:03:33;;;;;;;2.13;0.80;;;12.10;96.50;;;;;;4964052;28;20038;-65
2023/10/22 08:06:00;;;;;;;2.42;0.90;;;12.10;96.30;;;;;;4949866;28;20059;-66
2023/10/22 08:08:26;;;;;;;1.05;0.60;;;12.20;96.70;;;;;;4946869;29;20035;-66
2023/10/22 08:10:58;;;;;;;3.05;0.95;;;12.20;96.50;;;;;;4947563;29;20477;-66
2023/10/22 08:13:24;;;;;;;1.80;0.80;;;12.20;96.50;;;;;;4947045;28;20031;-66
2023/10/22 08:15:51;;;;;;;1.20;0.77;;;12.30;96.80;;;;;;4948422;29;20430;-66
2023/10/22 08:18:16;;;;;;;2.83;0.88;;;12.30;96.40;;;;;;4961997;28;20027;-66
2023/10/22 08:20:42;;;;;;;1.55;0.80;;;12.40;96.40;;;;;;4946837;29;20035;-66
2023/10/22 08:23:08;;;;;;;2.33;0.80;;;12.50;96.20;;;;;;4948103;28;20157;-65
2023/10/22 08:25:34;;;;;;;2.60;0.80;;;12.50;96.00;;;;;;4944901;28;20028;-65
2023/10/22 08:28:00;;;;;;;2.13;0.90;;;12.50;95.80;;;;;;4962020;28;20068;-66
2023/10/22 08:30:26;;;;;;;1.88;0.90;;;12.50;95.80;;;;;;4948675;29;20031;-66
2023/10/22 08:32:52;;;;;;;2.15;0.90;;;12.60;96.60;;;;;;4946623;28;20020;-66
2023/10/22 08:35:17;;;;;;;2.25;0.80;;;12.60;95.90;;;;;;4946517;28;20136;-65
2023/10/22 08:37:44;;;;;;;2.72;0.88;;;12.80;96.10;;;;;;4947425;28;20028;-65
2023/10/22 08:40:11;;;;;;;2.47;0.90;;;12.90;96.40;;;;;;4949876;28;20179;-67
2023/10/22 08:42:37;;;;;;;3.58;0.90;;;13.00;95.40;;;;;;4944862;28;20146;-65
2023/10/22 08:45:03;;;;;;;2.67;0.90;;;13.00;95.70;;;;;;4942191;29;20031;-65
2023/10/22 08:47:30;;;;;;;2.05;1.10;;;13.00;95.70;;;;;;4947989;29;20102;-65
2023/10/22 08:49:56;;;;;;;3.08;0.90;;;13.10;95.60;;;;;;4942026;28;20135;-66
2023/10/22 08:52:22;;;;;;;2.65;1.00;;;13.10;95.60;;;;;;4946701;28;20450;-66
2023/10/22 08:54:48;;;;;;;2.70;0.90;;;13.30;94.80;;;;;;4957619;28;20027;-65
2023/10/22 08:57:15;;;;;;;3.25;0.88;;;13.30;94.90;;;;;;4946518;28;20019;-65
2023/10/22 08:59:44;;;;;;;3.55;0.95;;;13.40;95.10;;;;;;4943448;28;20030;-65
2023/10/22 09:02:11;;;;;;;2.03;0.90;;;13.40;95.00;;;;;;4950130;28;20051;-66
2023/10/22 09:04:38;;;;;;;4.45;0.95;;;13.40;94.80;;;;;;4952750;28;20027;-65
2023/10/22 09:07:04;;;;;;;2.97;0.95;;;13.50;94.90;;;;;;4946899;28;20023;-66
2023/10/22 09:09:34;;;;;;;2.90;1.00;;;13.40;94.50;;;;;;4948715;28;20458;-68
2023/10/22 09:11:59;;;;;;;4.13;0.80;;;13.40;95.20;;;;;;4946272;29;20023;-66
2023/10/22 09:14:26;;;;;;;4.25;1.00;;;13.40;94.10;;;;;;4949871;28;20027;-64
2023/10/22 09:16:52;;;;;;;4.05;1.00;;;13.40;94.20;;;;;;4950614;28;20023;-64
2023/10/22 09:19:37;;;;;;;3.67;1.00;;;13.50;95.30;;;;;;4960513;28;20055;-64
2023/10/22 09:22:05;;;;;;;2.92;0.90;;;13.60;94.70;;;;;;4964504;28;20106;-63
2023/10/22 09:24:36;;;;;;;3.50;0.90;;;13.70;94.20;;;;;;4957772;28;20085;-64
2023/10/22 09:27:05;;;;;;;2.13;0.90;;;13.80;93.80;;;;;;4964809;28;20098;-64
2023/10/22 09:29:31;;;;;;;2.08;0.88;;;13.80;93.80;;;;;;4983958;28;20037;-64
2023/10/22 09:31:57;;;;;;;1.98;0.80;;;13.80;93.50;;;;;;4972613;28;20130;-64
2023/10/22 09:34:33;;;;;;;3.30;0.95;;;13.80;93.10;;;;;;4972463;28;20142;-64
2023/10/22 09:36:59;;;;;;;2.20;0.90;;;13.80;92.80;;;;;;4970222;28;20504;-63
2023/10/22 09:39:44;;;;;;;3.10;1.00;;;13.90;93.40;;;;;;4972402;28;20089;-64
2023/10/22 09:42:11;;;;;;;3.30;1.20;;;13.80;92.70;;;;;;4966491;28;20035;-64
2023/10/22 09:44:38;;;;;;;3.72;1.10;;;13.80;93.00;;;;;;4974907;28;20029;-64
2023/10/22 09:47:08;;;;;;;3.40;1.00;;;13.80;93.00;;;;;;4960274;28;20027;-65
2023/10/22 09:49:35;;;;;;;2.88;1.00;;;13.80;93.50;;;;;;4956962;28;20027;-64
2023/10/22 09:52:08;;;;;;;3.05;1.00;;;13.80;93.40;;;;;;4958590;28;20096;-62
2023/10/22 09:54:39;;;;;;;3.45;0.95;;;13.70;93.70;;;;;;4958367;28;20038;-63
2023/10/22 09:57:14;;;;;;;;;;;13.80;93.90;;;;;;4970672;28;20038;-63
2023/10/22 09:59:41;;;;;;;1.25;0.80;;;13.80;94.30;;;;;;4961453;28;19915;-63
2023/10/22 10:02:16;;;;;;;2.85;0.90;;;13.80;93.50;;;;;;4983386;28;20044;-63
2023/10/22 10:04:48;;;;;;;4.45;1.00;;;13.80;94.40;;;;;;4948822;28;20024;-64
2023/10/22 10:07:14;;;;;;;1.30;0.85;;;13.80;93.70;;;;;;4958658;28;20063;-63
2023/10/22 10:09:41;;;;;;;1.67;0.80;;;13.80;93.90;;;;;;4962905;28;20059;-63
2023/10/22 10:12:12;;;;;;;5.13;1.05;;;13.60;93.90;;;;;;4960827;28;20108;-64
2023/10/22 10:14:48;;;;;;;6.82;1.38;;;13.60;94.70;;;;;;4951975;28;20402;-64
2023/10/22 10:17:16;;;;;;;3.75;1.40;;;13.60;94.70;;;;;;4961246;28;20049;-63
2023/10/22 10:19:42;;;;;;;5.30;1.10;;;13.80;94.40;;;;;;4971060;28;20029;-63
2023/10/22 10:22:08;;;;;;;3.30;1.08;;;13.90;93.80;;;;;;4955339;28;20047;-63
2023/10/22 10:24:35;;;;;;;3.67;1.10;;;13.90;94.20;;;;;;4974131;28;20031;-64
2023/10/22 10:27:00;;;;;;;3.60;1.00;;;13.90;93.60;;;;;;4959064;28;20031;-65
2023/10/22 10:29:31;;;;;;;3.40;1.10;;;13.90;94.20;;;;;;4970381;28;20032;-65
2023/10/22 10:32:19;;;;;;;2.45;0.95;;;13.90;94.30;;;;;;4967653;28;20021;-65
2023/10/22 10:34:47;;;;;;;5.72;1.00;;;14.00;93.80;;;;;;4982928;28;20373;-65
2023/10/22 10:37:18;;;;;;;4.53;1.00;;;14.10;93.90;;;;;;4963620;28;20038;-65
2023/10/22 10:39:48;;;;;;;3.00;1.00;;;14.10;94.00;;;;;;4985135;28;20031;-65
2023/10/22 10:42:31;;;;;;;2.38;0.90;;;14.10;94.00;;;;;;4977227;28;20046;-65
2023/10/22 10:47:22;;;;;;;4.35;1.00;;;14.20;93.20;;;;;;4967565;28;20028;-64
2023/10/22 10:50:03;;;;;;;3.15;1.05;;;14.10;93.80;;;;;;4969612;28;20034;-63
2023/10/22 10:52:31;;;;;;;6.25;1.00;;;14.20;94.10;;;;;;4973826;28;20497;-64
2023/10/22 10:55:18;;;;;;;4.10;1.13;;;14.30;93.70;;;;;;4963312;28;20024;-64
2023/10/22 10:57:49;;;;;;;3.53;1.00;;;14.30;93.80;;;;;;4967472;28;20088;-63
2023/10/22 11:00:29;;;;;;;4.78;1.05;;;14.20;93.40;;;;;;4964606;28;20074;-63
2023/10/22 11:02:57;;;;;;;3.28;1.00;;;14.30;94.10;;;;;;4987512;28;20037;-63
2023/10/22 11:05:42;;;;;;;3.17;0.90;;;14.30;93.40;;;;;;4973461;28;20034;-63
2023/10/22 11:08:15;;;;;;;2.83;1.08;;;14.50;93.70;;;;;;4971031;28;20025;-63
2023/10/22 11:10:46;;;;;;;3.03;1.00;;;14.60;93.30;;;;;;4975059;28;20129;-63
2023/10/22 11:13:12;;;;;;;1.95;0.90;;;14.80;93.60;;;;;;4961421;28;20424;-63
2023/10/22 11:15:40;;;;;;;3.60;1.10;;;14.90;93.10;;;;;;4988017;28;20025;-63
2023/10/22 11:18:08;;;;;;;2.67;1.00;;;14.80;93.30;;;;;;4984574;28;20021;-63
2023/10/22 11:20:34;;;;;;;4.13;1.10;;;14.70;93.30;;;;;;4988996;28;20032;-63
2023/10/22 11:23:00;;;;;;;4.22;1.00;;;14.80;93.00;;;;;;4953269;28;20033;-63
2023/10/22 11:25:27;;;;;;;3.47;1.08;;;14.70;92.80;;;;;;4975733;28;20031;-63
2023/10/22 11:27:54;;;;;;;2.45;1.00;;;14.60;93.60;;;;;;4955975;28;20027;-64
2023/10/22 11:30:36;;;;;;;3.33;1.02;;;14.60;93.70;;;;;;4966081;28;20031;-64
2023/10/22 11:33:04;;;;;;;4.15;1.27;;;14.60;93.70;;;;;;4971144;28;20027;-63
2023/10/22 11:35:33;;;;;;;2.85;1.00;;;14.70;93.40;;;;;;4976603;28;20033;-63
2023/10/22 11:37:58;;;;;;;3.47;1.17;;;14.80;92.80;;;;;;4951800;28;20031;-63
2023/10/22 11:40:37;;;;;;;2.67;1.00;;;14.70;94.00;;;;;;4986346;28;20034;-63
2023/10/22 11:43:16;;;;;;;3.47;1.02;;;14.70;93.60;;;;;;4963794;28;20023;-63
2023/10/22 11:45:53;;;;;;;2.85;0.90;;;14.60;93.20;;;;;;4965339;28;20113;-63
2023/10/22 11:48:21;;;;;;;2.97;0.93;;;14.50;93.70;;;;;;4953440;28;20675;-63
2023/10/22 11:50:52;;;;;;;3.30;1.00;;;14.40;93.60;;;;;;4963178;28;20054;-63
2023/10/22 11:53:17;;;;;;;2.90;1.00;;;14.30;94.00;;;;;;4953650;28;20478;-63
2023/10/22 11:55:45;;;;;;;3.35;0.98;;;14.30;94.10;;;;;;4950874;28;20038;-63
2023/10/22 11:58:25;;;;;;;5.15;1.13;;;14.40;94.40;;;;;;4969391;28;20474;-65
2023/10/22 12:00:51;;;;;;;3.70;1.13;;;14.50;94.20;;;;;;4964783;28;20038;-65
2023/10/22 12:03:18;;;;;;;1.88;0.93;;;14.60;94.10;;;;;;4973809;28;20033;-63
2023/10/22 12:05:44;;;;;;;3.45;1.10;;;14.70;93.60;;;;;;4960113;28;20036;-63
2023/10/22 12:08:10;;;;;;;3.15;1.00;;;14.80;93.00;;;;;;4958278;28;20054;-63
2023/10/22 12:10:36;;;;;;;3.03;0.85;;;14.90;93.20;;;;;;4955721;28;20097;-65
2023/10/22 12:13:05;;;;;;;3.17;0.98;;;14.90;93.00;;;;;;4965767;28;20043;-64
2023/10/22 12:15:31;;;;;;;2.37;0.97;;;14.90;92.80;;;;;;4974034;28;20024;-63
2023/10/22 12:17:57;;;;;;;3.15;0.90;;;14.90;92.60;;;;;;4975981;28;20023;-64
2023/10/22 12:20:23;;;;;;;4.80;1.25;;;14.90;91.90;;;;;;4954354;28;20054;-64
2023/10/22 12:22:49;;;;;;;3.50;0.95;;;14.90;92.70;;;;;;4976145;28;20396;-64
2023/10/22 12:25:15;;;;;;;2.20;0.95;;;15.10;92.90;;;;;;4975038;28;20023;-64
2023/10/22 12:27:41;;;;;;;5.18;0.85;;;15.40;91.20;;;;;;4961594;28;20027;-64
2023/10/22 12:30:07;;;;;;;2.05;0.80;;;15.50;91.00;;;;;;4962066;28;20626;-64
2023/10/22 12:32:33;;;;;;;3.42;1.02;;;15.50;90.40;;;;;;4965171;28;20054;-65
2023/10/22 12:34:59;;;;;;;2.75;1.00;;;15.50;91.30;;;;;;4959893;28;20036;-64
2023/10/22 12:37:25;;;;;;;2.33;0.90;;;15.50;89.80;;;;;;4971773;28;20501;-64
2023/10/22 12:39:51;;;;;;;3.83;0.95;;;15.50;91.20;;;;;;4953330;28;20031;-64
2023/10/22 12:42:17;;;;;;;4.20;1.00;;;15.60;90.60;;;;;;4957331;28;20506;-64
2023/10/22 12:44:43;;;;;;;3.58;1.00;;;15.50;90.50;;;;;;4950947;28;20055;-66
2023/10/22 12:47:12;;;;;;;2.65;0.90;;;15.40;91.00;;;;;;4994727;28;20047;-67
2023/10/22 12:49:42;;;;;;;2.70;0.90;;;15.50;90.30;;;;;;4957118;28;20023;-66
2023/10/22 12:52:09;;;;;;;4.25;1.00;;;15.50;90.60;;;;;;4952837;28;20615;-66